Time;durP1;ratioP1;P1;durP2;ratioP2;P2;SDS_P1;SDS_P2;PMS_P1;PMS_P2;Temp;Humidity;BMP_temperature;BMP_pressure;BME280_temperature;BME280_humidity;BME280_pressure;Samples;Min_cycle;Max_cycle;Signal;HPM_P1;HPM_P2
2023/09/27 00:00:44;;;;;;;6.03;4.63;;;;;;;;;;6184350;23;20025;-88
2023/09/27 00:07:04;;;;;;;16.48;5.10;;;;;;;;;;6216992;23;20442;-88
2023/09/27 00:09:41;;;;;;;6.95;4.35;;;;;;;;;;6212707;23;20072;-87
2023/09/27 00:12:25;;;;;;;6.65;4.65;;;;;;;;;;6232441;23;20055;-87
2023/09/27 00:15:33;;;;;;;10.00;4.45;;;;;;;;;;6191825;23;20347;-88
2023/09/27 00:21:46;;;;;;;8.65;4.90;;;;;;;;;;6205064;23;20025;-86
2023/09/27 00:24:36;;;;;;;9.30;5.30;;;;;;;;;;6199811;23;20306;-86
2023/09/27 00:39:46;;;;;;;11.80;5.47;;;;;;;;;;6288736;22;20030;-87
2023/09/27 00:42:50;;;;;;;9.07;4.53;;;;;;;;;;6269606;22;20027;-87
2023/09/27 00:45:58;;;;;;;12.60;5.28;;;;;;;;;;4621076;27;12578343;-87
2023/09/27 00:52:05;;;;;;;9.68;5.72;;;;;;;;;;5042399;28;20053;-87
2023/09/27 00:55:02;;;;;;;8.88;5.22;;;;;;;;;;5039196;28;20040;-87
2023/09/27 00:57:56;;;;;;;9.05;5.72;;;;;;;;;;5033764;28;20064;-87
2023/09/27 01:00:39;;;;;;;10.45;6.20;;;;;;;;;;5036376;28;20045;-87
2023/09/27 01:03:19;;;;;;;12.77;6.15;;;;;;;;;;5040710;28;20385;-88
2023/09/27 01:06:29;;;;;;;8.48;6.35;;;;;;;;;;5028349;28;20065;-87
2023/09/27 01:09:28;;;;;;;;;;;;;;;;;;;;;
2023/09/27 01:12:45;;;;;;;;;;;;;;;;;;;;;
2023/09/27 01:15:36;;;;;;;13.50;7.05;;;;;;;;;;4981828;28;20057;-87
2023/09/27 01:18:17;;;;;;;7.95;5.45;;;;;;;;;;4982045;28;20105;-87
2023/09/27 01:21:19;;;;;;;17.55;7.18;;;;;;;;;;4987416;28;20067;-87
2023/09/27 01:24:06;;;;;;;11.60;6.10;;;;;;;;;;4993028;28;20051;-87
2023/09/27 01:26:47;;;;;;;13.10;6.35;;;;;;;;;;4977854;28;20445;-88
2023/09/27 01:29:25;;;;;;;13.70;6.53;;;;;;;;;;5004335;28;20279;-87
2023/09/27 01:32:02;;;;;;;8.55;6.40;;;;;;;;;;5039374;28;20116;-88
2023/09/27 01:34:44;;;;;;;12.40;7.85;;;;;;;;;;5039033;28;20385;-87
2023/09/27 01:37:45;;;;;;;10.35;6.65;;;;;;;;;;5018948;28;20429;-86
2023/09/27 01:40:36;;;;;;;11.15;6.57;;;;;;;;;;5003132;28;20245;-87
2023/09/27 01:43:36;;;;;;;10.07;6.07;;;;;;;;;;4986987;28;20462;-87
2023/09/27 01:46:21;;;;;;;9.25;6.53;;;;;;;;;;5000282;28;20046;-88
2023/09/27 01:49:02;;;;;;;10.73;7.50;;;;;;;;;;5003740;28;20123;-87
2023/09/27 01:52:01;;;;;;;16.88;7.72;;;;;;;;;;5007112;28;20050;-86
2023/09/27 01:57:50;;;;;;;10.07;6.70;;;;;;;;;;5010994;28;20044;-88
2023/09/27 02:01:01;;;;;;;9.38;6.00;;;;;;;;;;4995631;28;20066;-87
2023/09/27 02:06:57;;;;;;;11.52;7.28;;;;;;;;;;4967234;28;20091;-86
2023/09/27 02:09:50;;;;;;;10.85;7.80;;;;;;;;;;4989956;28;20065;-87
2023/09/27 02:12:39;;;;;;;20.38;8.85;;;;;;;;;;4992204;28;20101;-87
2023/09/27 02:15:46;;;;;;;9.57;7.20;;;;;;;;;;5020219;28;20101;-88
2023/09/27 02:18:50;;;;;;;;;;;;;;;;;;;;;
2023/09/27 02:21:53;;;;;;;11.00;8.55;;;;;;;;;;5033962;28;20133;-87
2023/09/27 02:24:31;;;;;;;15.80;8.10;;;;;;;;;;5028774;28;20053;-87
2023/09/27 02:27:24;;;;;;;15.55;8.40;;;;;;;;;;5028776;28;20129;-87
2023/09/27 02:30:32;;;;;;;14.57;8.63;;;;;;;;;;5027842;28;20140;-87
2023/09/27 02:33:18;;;;;;;11.90;8.48;;;;;;;;;;5026038;28;20453;-87
2023/09/27 02:35:55;;;;;;;;;;;;;;;;;;5028931;28;20045;-87
2023/09/27 02:38:57;;;;;;;13.70;8.33;;;;;;;;;;5027991;28;19909;-87
2023/09/27 02:41:59;;;;;;;11.93;7.57;;;;;;;;;;5028372;28;20219;-87
2023/09/27 02:44:50;;;;;;;13.52;8.63;;;;;;;;;;5023868;28;20050;-87
2023/09/27 02:47:50;;;;;;;14.48;8.70;;;;;;;;;;5026645;28;20082;-87
2023/09/27 02:50:20;;;;;;;14.15;8.95;;;;;;;;;;5031920;28;20049;-86
2023/09/27 02:53:07;;;;;;;13.35;8.50;;;;;;;;;;5025659;28;20241;-87
2023/09/27 02:55:54;;;;;;;11.38;7.72;;;;;;;;;;5025483;28;20445;-87
2023/09/27 02:58:31;;;;;;;12.45;8.00;;;;;;;;;;5022904;28;20060;-87
2023/09/27 03:01:44;;;;;;;14.38;8.48;;;;;;;;;;5002358;28;20068;-87
2023/09/27 03:04:43;;;;;;;12.75;8.65;;;;;;;;;;5022026;28;20143;-87
2023/09/27 03:07:23;;;;;;;15.70;8.75;;;;;;;;;;5022287;28;20139;-87
2023/09/27 03:10:19;;;;;;;13.57;9.68;;;;;;;;;;5022676;28;20042;-87
2023/09/27 03:13:13;;;;;;;14.20;8.88;;;;;;;;;;5012054;28;20042;-87
2023/09/27 03:16:06;;;;;;;14.77;9.65;;;;;;;;;;5023441;28;20049;-87
2023/09/27 03:18:39;;;;;;;11.95;8.75;;;;;;;;;;5022709;28;20054;-87
2023/09/27 03:21:23;;;;;;;12.05;8.30;;;;;;;;;;5021045;28;20054;-87
2023/09/27 03:28:00;;;;;;;11.05;8.93;;;;;;;;;;4949968;28;20049;-87
2023/09/27 03:30:48;;;;;;;18.42;10.60;;;;;;;;;;5022688;28;20058;-87
2023/09/27 03:33:53;;;;;;;12.00;9.02;;;;;;;;;;5004446;28;20030;-86
2023/09/27 03:36:42;;;;;;;12.07;9.30;;;;;;;;;;5024750;28;20061;-87
2023/09/27 03:39:28;;;;;;;11.95;9.30;;;;;;;;;;5022643;28;20137;-86
2023/09/27 03:51:07;;;;;;;;;;;;;;;;;;;;;
2023/09/27 03:53:35;;;;;;;11.65;7.97;;;;;;;;;;5082177;28;20044;-86
2023/09/27 03:56:30;;;;;;;12.63;7.75;;;;;;;;;;5039655;28;20061;-87
2023/09/27 03:59:20;;;;;;;15.20;9.20;;;;;;;;;;5022753;28;20093;-87
2023/09/27 04:01:58;;;;;;;14.75;10.10;;;;;;;;;;5024790;28;20083;-86
2023/09/27 04:05:11;;;;;;;14.52;10.52;;;;;;;;;;5029634;28;20067;-87
2023/09/27 04:08:17;;;;;;;18.17;12.23;;;;;;;;;;5031775;28;20033;-86
2023/09/27 04:11:10;;;;;;;14.80;10.25;;;;;;;;;;5027571;28;20117;-87
2023/09/27 04:13:48;;;;;;;15.65;10.77;;;;;;;;;;5026958;28;20081;-86
2023/09/27 04:20:25;;;;;;;13.82;9.25;;;;;;;;;;4965324;28;20063;-87
2023/09/27 04:23:04;;;;;;;13.80;9.95;;;;;;;;;;4951902;29;20051;-88
2023/09/27 04:29:15;;;;;;;13.07;9.52;;;;;;;;;;5037924;28;20039;-87
2023/09/27 04:32:28;;;;;;;18.27;11.13;;;;;;;;;;5049380;28;20153;-87
2023/09/27 04:35:15;;;;;;;15.25;10.20;;;;;;;;;;5085301;28;20114;-87
2023/09/27 04:38:28;;;;;;;;;;;;;;;;;;;;;
2023/09/27 04:41:21;;;;;;;21.25;12.52;;;;;;;;;;5083723;28;20084;-87
2023/09/27 04:44:20;;;;;;;19.50;13.48;;;;;;;;;;5074024;28;20053;-87
2023/09/27 04:47:12;;;;;;;17.13;11.88;;;;;;;;;;5082267;28;20093;-88
2023/09/27 04:50:22;;;;;;;18.85;12.57;;;;;;;;;;5049957;28;20112;-87
2023/09/27 04:53:05;;;;;;;17.98;12.32;;;;;;;;;;5062979;28;20037;-88
2023/09/27 04:55:42;;;;;;;15.13;10.98;;;;;;;;;;5047797;28;20623;-88
2023/09/27 05:02:12;;;;;;;21.58;13.82;;;;;;;;;;5019505;28;20058;-86
2023/09/27 05:08:10;;;;;;;19.95;14.15;;;;;;;;;;5064188;28;20091;-88
2023/09/27 05:11:35;;;;;;;24.80;17.17;;;;;;;;;;5042804;28;20401;-86
2023/09/27 05:14:22;;;;;;;25.33;16.95;;;;;;;;;;5041019;28;20045;-86
2023/09/27 05:17:10;;;;;;;26.73;16.98;;;;;;;;;;5039056;28;20398;-87
2023/09/27 05:19:56;;;;;;;33.15;17.60;;;;;;;;;;5039188;28;20077;-87
2023/09/27 05:22:47;;;;;;;23.77;15.98;;;;;;;;;;5040867;28;20045;-86
2023/09/27 05:25:32;;;;;;;25.50;16.33;;;;;;;;;;5039692;28;20039;-87
2023/09/27 05:28:37;;;;;;;22.42;16.13;;;;;;;;;;5059522;28;20056;-87
2023/09/27 05:31:24;;;;;;;23.80;15.25;;;;;;;;;;5048931;28;20045;-86
2023/09/27 05:33:54;;;;;;;25.67;15.90;;;;;;;;;;5047956;28;20087;-87
2023/09/27 05:36:41;;;;;;;19.63;14.50;;;;;;;;;;5050860;28;20111;-87
2023/09/27 05:39:46;;;;;;;25.52;16.20;;;;;;;;;;5049398;28;20056;-87
2023/09/27 05:42:28;;;;;;;;;;;;;;;;;;5053874;28;20056;-87
2023/09/27 05:48:19;;;;;;;25.33;16.60;;;;;;;;;;5068028;28;20104;-89
2023/09/27 05:51:09;;;;;;;24.83;16.77;;;;;;;;;;5062964;28;20053;-87
2023/09/27 05:53:53;;;;;;;23.73;16.73;;;;;;;;;;5041333;28;20036;-86
2023/09/27 05:56:50;;;;;;;21.98;16.35;;;;;;;;;;5057351;28;20053;-88
2023/09/27 05:59:44;;;;;;;21.42;14.68;;;;;;;;;;5042709;28;20048;-86
2023/09/27 06:02:31;;;;;;;28.95;14.85;;;;;;;;;;5041428;28;20041;-87
2023/09/27 06:05:21;;;;;;;20.25;13.15;;;;;;;;;;5042453;28;20045;-86
2023/09/27 06:08:08;;;;;;;14.40;11.73;;;;;;;;;;5060268;28;20045;-86
2023/09/27 09:29:20;;;;;;;10.77;7.82;;;;;;;;;;3989889;26;20065;-91
2023/09/27 09:34:54;;;;;;;12.15;7.00;;;;;;;;;;5393536;23;20054;-90
2023/09/27 09:37:52;;;;;;;;;;;;;;;;;;;;;
2023/09/27 09:46:06;;;;;;;12.93;6.75;;;;;;;;;;4999442;23;20065;-90
2023/09/27 10:01:26;;;;;;;13.70;7.15;;;;;;;;;;5637232;23;20406;-87
2023/09/27 10:29:00;;;;;;;16.08;5.85;;;;;;;;;;2683617;23;20063;-88
2023/09/27 15:07:20;;;;;;;4.75;2.83;;;;;;;;;;4972975;28;20612;-87
2023/09/27 15:09:57;;;;;;;9.45;3.40;;;;;;;;;;4973876;28;20058;-87
2023/09/27 15:12:51;;;;;;;6.18;2.35;;;;;;;;;;4951779;28;20060;-88
2023/09/27 15:15:46;;;;;;;5.68;2.50;;;;;;;;;;4954034;28;20078;-88
2023/09/27 15:18:43;;;;;;;3.28;2.20;;;;;;;;;;4980719;28;20099;-88
2023/09/27 15:21:39;;;;;;;4.63;2.70;;;;;;;;;;4966747;28;20143;-87
2023/09/27 15:24:23;;;;;;;3.67;2.35;;;;;;;;;;4966811;28;20106;-87
2023/09/27 15:30:28;;;;;;;5.90;2.45;;;;;;;;;;4983629;28;20042;-88
2023/09/27 15:32:58;;;;;;;5.35;2.42;;;;;;;;;;4957174;28;20122;-87
2023/09/27 15:35:34;;;;;;;5.38;2.10;;;;;;;;;;4958855;28;20046;-88
2023/09/27 15:38:14;;;;;;;4.60;2.40;;;;;;;;;;4961115;28;20584;-88
2023/09/27 15:41:04;;;;;;;6.45;2.55;;;;;;;;;;4973875;28;20051;-89
2023/09/27 15:47:17;;;;;;;4.10;2.40;;;;;;;;;;4958925;28;20058;-89
2023/09/27 15:50:04;;;;;;;5.93;2.67;;;;;;;;;;4975936;28;20054;-89
2023/09/27 15:55:22;;;;;;;4.88;3.13;;;;;;;;;;5223115;23;20035;-89
2023/09/27 15:58:07;;;;;;;8.18;3.55;;;;;;;;;;4979668;28;20058;-88
2023/09/27 16:00:55;;;;;;;4.82;3.20;;;;;;;;;;4962486;28;20319;-89
2023/09/27 16:03:59;;;;;;;5.15;2.95;;;;;;;;;;4969496;28;20059;-89
2023/09/27 16:06:53;;;;;;;4.72;3.08;;;;;;;;;;4955101;28;20146;-90
2023/09/27 16:09:47;;;;;;;5.25;3.08;;;;;;;;;;4957570;28;20163;-89
2023/09/27 16:12:42;;;;;;;4.97;2.28;;;;;;;;;;4963092;28;20113;-88
2023/09/27 16:15:26;;;;;;;5.00;2.90;;;;;;;;;;4960103;28;20181;-89
2023/09/27 16:18:10;;;;;;;6.13;3.05;;;;;;;;;;4962243;28;20057;-89
2023/09/27 16:20:57;;;;;;;4.15;2.50;;;;;;;;;;4981497;28;20652;-89
2023/09/27 16:23:34;;;;;;;4.22;3.25;;;;;;;;;;4967774;28;20065;-90
2023/09/27 16:26:23;;;;;;;4.95;3.00;;;;;;;;;;4981813;28;20066;-90
2023/09/27 16:29:17;;;;;;;4.60;3.20;;;;;;;;;;4955242;28;20062;-90
2023/09/27 16:31:47;;;;;;;4.55;2.42;;;;;;;;;;4962022;28;20086;-89
2023/09/27 16:34:31;;;;;;;8.00;4.18;;;;;;;;;;4965230;28;20121;-88
2023/09/27 16:37:04;;;;;;;7.70;3.15;;;;;;;;;;4960766;28;20047;-89
2023/09/27 16:39:52;;;;;;;3.35;2.42;;;;;;;;;;4974359;28;20094;-89
2023/09/27 16:42:50;;;;;;;9.80;2.78;;;;;;;;;;4978187;28;20117;-88
2023/09/27 16:45:48;;;;;;;5.05;2.80;;;;;;;;;;4969334;28;20050;-89
2023/09/27 16:48:36;;;;;;;3.88;2.55;;;;;;;;;;4952190;28;20102;-90
2023/09/27 16:51:23;;;;;;;3.53;2.67;;;;;;;;;;4962527;28;20074;-90
2023/09/27 16:57:44;;;;;;;5.75;3.28;;;;;;;;;;4901572;29;20044;-90
2023/09/27 17:00:29;;;;;;;8.48;4.35;;;;;;;;;;4902744;29;20056;-89
2023/09/27 17:07:09;;;;;;;6.13;3.33;;;;;;;;;;4899426;29;20067;-89
2023/09/27 17:09:40;;;;;;;8.23;3.58;;;;;;;;;;4884499;29;20056;-90
2023/09/27 17:12:45;;;;;;;5.75;4.22;;;;;;;;;;4894036;29;20078;-89
2023/09/27 17:16:07;;;;;;;4.50;3.35;;;;;;;;;;4893066;29;20069;-90
2023/09/27 17:18:52;;;;;;;6.07;4.00;;;;;;;;;;4887638;29;20049;-89
2023/09/27 17:21:45;;;;;;;10.85;5.40;;;;;;;;;;4886348;29;20056;-91
2023/09/27 17:24:19;;;;;;;6.70;4.40;;;;;;;;;;4899408;29;20061;-90
2023/09/27 17:30:21;;;;;;;8.00;4.30;;;;;;;;;;4957815;29;20057;-90
2023/09/27 17:33:03;;;;;;;7.93;5.00;;;;;;;;;;4938740;29;20440;-90
2023/09/27 17:35:58;;;;;;;8.45;4.55;;;;;;;;;;4953299;29;20086;-89
2023/09/27 17:38:32;;;;;;;11.85;6.07;;;;;;;;;;4945470;29;20309;-89
2023/09/27 17:41:22;;;;;;;11.48;5.80;;;;;;;;;;4960514;29;20122;-89
2023/09/27 17:44:28;;;;;;;10.65;5.55;;;;;;;;;;4955051;29;20047;-87
2023/09/27 17:47:18;;;;;;;0.00;0.00;;;;;;;;;;4940671;29;20420;-88
2023/09/27 17:50:35;;;;;;;0.00;0.00;;;;;;;;;;4930089;29;20158;-88
2023/09/27 17:56:47;;;;;;;9.48;4.40;;;;;;;;;;4929917;29;20493;-86
2023/09/27 17:59:46;;;;;;;;;;;;;;;;;;;;;
2023/09/27 18:05:58;;;;;;;6.78;4.70;;;;;;;;;;4887324;29;20248;-90
2023/09/27 18:08:32;;;;;;;9.43;4.70;;;;;;;;;;4935305;29;20111;-90
2023/09/27 18:11:21;;;;;;;9.50;5.45;;;;;;;;;;4939113;29;20135;-89
2023/09/27 18:14:02;;;;;;;8.52;4.72;;;;;;;;;;4936402;29;20059;-89
2023/09/27 18:16:50;;;;;;;9.90;5.05;;;;;;;;;;4947186;29;20103;-90
2023/09/27 18:19:28;;;;;;;7.00;4.28;;;;;;;;;;4942000;29;20103;-89
2023/09/27 18:22:10;;;;;;;9.27;5.05;;;;;;;;;;4930913;29;20098;-90
2023/09/27 18:25:00;;;;;;;9.38;5.50;;;;;;;;;;4967934;28;20086;-90
2023/09/27 18:27:57;;;;;;;7.60;4.53;;;;;;;;;;4977575;28;20081;-90
2023/09/27 18:33:46;;;;;;;11.95;4.93;;;;;;;;;;4968708;28;20058;-89
2023/09/27 18:36:41;;;;;;;9.32;4.78;;;;;;;;;;4962378;28;20304;-90
2023/09/27 18:39:37;;;;;;;6.57;4.72;;;;;;;;;;4964866;28;20094;-88
2023/09/27 18:42:53;;;;;;;6.95;4.45;;;;;;;;;;4974680;28;20062;-89
2023/09/27 18:45:42;;;;;;;6.85;3.95;;;;;;;;;;4959429;28;20042;-89
2023/09/27 18:48:22;;;;;;;10.25;4.55;;;;;;;;;;4968507;28;20331;-90
2023/09/27 18:51:10;;;;;;;8.18;4.20;;;;;;;;;;4970845;28;20051;-89
2023/09/27 18:53:55;;;;;;;7.95;4.38;;;;;;;;;;4971693;28;20247;-89
2023/09/27 18:56:41;;;;;;;10.45;4.45;;;;;;;;;;4984351;28;20055;-89
2023/09/27 18:59:55;;;;;;;8.80;4.68;;;;;;;;;;4943820;29;20058;-90
2023/09/27 19:12:40;;;;;;;5.68;3.35;;;;;;;;;;4906104;29;19927;-88
2023/09/27 19:18:44;;;;;;;9.75;4.15;;;;;;;;;;4944345;29;20047;-88
2023/09/27 19:21:29;;;;;;;5.72;4.05;;;;;;;;;;4942892;29;20063;-87
2023/09/27 19:24:45;;;;;;;6.50;4.00;;;;;;;;;;4942024;29;20103;-88
2023/09/27 19:27:40;;;;;;;8.55;4.15;;;;;;;;;;4929088;29;20056;-88
2023/09/27 19:33:18;;;;;;;7.80;4.00;;;;;;;;;;4982734;28;20241;-88
2023/09/27 19:36:07;;;;;;;7.03;4.20;;;;;;;;;;4968082;28;20119;-88
2023/09/27 19:39:03;;;;;;;8.20;4.97;;;;;;;;;;4968644;28;20051;-88
2023/09/27 19:41:52;;;;;;;10.75;4.93;;;;;;;;;;4970487;28;20063;-88
2023/09/27 19:44:54;;;;;;;10.70;4.68;;;;;;;;;;4967355;28;20046;-87
2023/09/27 19:51:05;;;;;;;5.65;4.20;;;;;;;;;;4988939;28;20346;-87
2023/09/27 19:54:04;;;;;;;7.97;5.10;;;;;;;;;;4973090;28;20043;-87
2023/09/27 20:00:31;;;;;;;9.65;4.30;;;;;;;;;;4984095;28;20058;-87
2023/09/27 20:03:23;;;;;;;10.68;4.55;;;;;;;;;;4964494;28;20054;-88
2023/09/27 20:05:56;;;;;;;10.70;4.55;;;;;;;;;;4969119;28;20129;-87
2023/09/27 20:09:13;;;;;;;7.68;4.70;;;;;;;;;;4965393;28;20065;-87
2023/09/27 20:12:19;;;;;;;6.88;4.70;;;;;;;;;;4974863;28;20185;-88
2023/09/27 20:15:32;;;;;;;7.50;4.53;;;;;;;;;;4980893;28;20195;-87
2023/09/27 20:18:22;;;;;;;5.35;4.18;;;;;;;;;;4973362;28;20054;-87
2023/09/27 20:21:05;;;;;;;8.15;4.57;;;;;;;;;;4974128;28;20426;-87
2023/09/27 20:23:40;;;;;;;7.07;4.60;;;;;;;;;;4972149;28;20134;-87
2023/09/27 20:26:33;;;;;;;6.25;4.05;;;;;;;;;;4972019;28;20046;-87
2023/09/27 20:29:29;;;;;;;7.28;4.35;;;;;;;;;;4992292;28;20050;-87
2023/09/27 20:32:26;;;;;;;6.82;5.03;;;;;;;;;;4971260;28;20162;-87
2023/09/27 20:35:19;;;;;;;9.40;4.43;;;;;;;;;;4989337;28;20065;-87
2023/09/27 20:38:09;;;;;;;7.93;5.00;;;;;;;;;;4965096;28;20051;-87
2023/09/27 20:41:07;;;;;;;11.13;5.30;;;;;;;;;;4917387;28;20081;-87
2023/09/27 20:44:07;;;;;;;12.45;6.53;;;;;;;;;;4964378;28;20145;-86
2023/09/27 20:50:21;;;;;;;9.85;5.43;;;;;;;;;;4983123;28;20061;-86
2023/09/27 20:53:07;;;;;;;7.45;5.35;;;;;;;;;;4972830;28;20065;-87
2023/09/27 20:56:09;;;;;;;8.35;5.75;;;;;;;;;;4986127;28;20074;-87
2023/09/27 20:58:53;;;;;;;7.72;5.28;;;;;;;;;;4974573;28;20117;-87
2023/09/27 21:01:40;;;;;;;8.85;6.03;;;;;;;;;;4977391;28;20081;-87
2023/09/27 21:04:28;;;;;;;11.18;6.68;;;;;;;;;;4976117;28;20114;-86
2023/09/27 21:07:07;;;;;;;7.68;6.15;;;;;;;;;;4974436;28;20118;-87
2023/09/27 21:09:52;;;;;;;10.35;5.50;;;;;;;;;;4976750;28;20038;-88
2023/09/27 21:12:35;;;;;;;9.55;5.88;;;;;;;;;;4994416;28;20051;-87
2023/09/27 21:15:43;;;;;;;10.55;6.47;;;;;;;;;;4978766;28;20058;-86
2023/09/27 21:18:27;;;;;;;11.65;6.47;;;;;;;;;;4982313;28;20061;-87
2023/09/27 21:21:12;;;;;;;11.43;6.97;;;;;;;;;;4978823;28;20058;-87
2023/09/27 21:24:17;;;;;;;12.80;7.13;;;;;;;;;;4978377;28;20045;-88
2023/09/27 21:33:31;;;;;;;14.52;6.85;;;;;;;;;;5000571;28;20043;-88
2023/09/27 21:36:54;;;;;;;;;;;;;;;;;;;;;
2023/09/27 21:54:51;;;;;;;15.15;8.65;;;;;;;;;;4950814;28;20056;-87
2023/09/27 22:01:35;;;;;;;12.60;8.77;;;;;;;;;;4900424;29;20036;-87
2023/09/27 22:08:16;;;;;;;23.67;8.75;;;;;;;;;;4960869;29;20029;-88
2023/09/27 22:11:02;;;;;;;18.33;9.05;;;;;;;;;;4932629;29;20083;-87
2023/09/27 22:16:56;;;;;;;12.63;9.02;;;;;;;;;;4946718;29;20059;-87
2023/09/27 22:19:43;;;;;;;12.48;8.57;;;;;;;;;;4930831;29;20259;-87
2023/09/27 22:22:27;;;;;;;19.55;9.50;;;;;;;;;;4931032;29;20397;-88
2023/09/27 22:25:13;;;;;;;12.20;8.50;;;;;;;;;;4932131;29;20077;-87
2023/09/27 22:28:11;;;;;;;14.50;9.70;;;;;;;;;;4933915;29;20103;-87
2023/09/27 22:31:11;;;;;;;14.38;9.68;;;;;;;;;;4943326;29;20050;-88
2023/09/27 22:34:16;;;;;;;14.95;9.35;;;;;;;;;;4935815;29;20066;-87
2023/09/27 22:37:13;;;;;;;13.68;9.38;;;;;;;;;;4934216;29;20060;-88
2023/09/27 22:39:59;;;;;;;11.10;8.30;;;;;;;;;;4934851;29;20052;-86
2023/09/27 22:42:56;;;;;;;13.25;9.50;;;;;;;;;;4928280;29;20255;-86
2023/09/27 22:45:35;;;;;;;18.05;9.30;;;;;;;;;;4929904;29;20074;-86
2023/09/27 22:48:29;;;;;;;20.98;9.95;;;;;;;;;;4930225;29;20055;-87
2023/09/27 22:51:17;;;;;;;19.80;10.23;;;;;;;;;;4931596;29;20048;-88
2023/09/27 22:54:00;;;;;;;14.43;10.02;;;;;;;;;;4948678;29;20043;-88
2023/09/27 22:56:47;;;;;;;14.32;10.27;;;;;;;;;;4950041;29;20039;-87
2023/09/27 22:59:21;;;;;;;13.90;9.60;;;;;;;;;;4947848;29;20051;-87
2023/09/27 23:02:20;;;;;;;18.30;11.18;;;;;;;;;;4957749;29;20058;-87
2023/09/27 23:04:58;;;;;;;15.82;10.45;;;;;;;;;;4950796;29;20055;-87
2023/09/27 23:07:40;;;;;;;14.60;10.97;;;;;;;;;;4965448;29;20051;-87
2023/09/27 23:10:49;;;;;;;17.15;11.40;;;;;;;;;;4935314;29;20094;-87
2023/09/27 23:16:33;;;;;;;17.53;12.33;;;;;;;;;;4951972;29;20063;-87
2023/09/27 23:19:26;;;;;;;13.90;10.23;;;;;;;;;;4949834;29;20503;-87
2023/09/27 23:22:19;;;;;;;16.05;11.20;;;;;;;;;;4950486;28;20460;-87
2023/09/27 23:31:36;;;;;;;19.25;12.25;;;;;;;;;;4966789;28;20051;-87
2023/09/27 23:34:22;;;;;;;18.10;12.30;;;;;;;;;;4948562;29;20116;-88
2023/09/27 23:37:18;;;;;;;20.95;12.68;;;;;;;;;;4937089;29;20118;-88
2023/09/27 23:39:56;;;;;;;21.88;11.77;;;;;;;;;;4949715;29;20071;-87
2023/09/27 23:42:46;;;;;;;16.42;12.10;;;;;;;;;;4950469;29;20353;-88
2023/09/27 23:45:25;;;;;;;14.63;11.52;;;;;;;;;;4970364;28;20043;-88
2023/09/27 23:48:16;;;;;;;15.18;11.27;;;;;;;;;;4949754;29;20062;-87
2023/09/27 23:50:54;;;;;;;16.13;12.40;;;;;;;;;;4965711;28;20110;-88
2023/09/27 23:53:38;;;;;;;21.10;11.85;;;;;;;;;;4949549;28;20051;-87
2023/09/27 23:56:26;;;;;;;14.13;10.70;;;;;;;;;;4950100;28;20062;-87
2023/09/27 23:59:07;;;;;;;17.73;10.77;;;;;;;;;;4951861;29;20114;-87
